CFS8820 KGTF-KMSO
Flight info
| Callsign | CFS8820 |
|---|---|
| Flight time | 0h 37m |
| Altitude | 16000 |
| Route | TUCKB T317 MSO |
| Aircraft | AT76/M-SDFGIRY/S |
Departure
| Time | 2026-05-07 22:06 |
|---|---|
| Airport | Great Falls International Airport (KGTF) |
Arrival
| Time | 2026-05-07 22:43 |
|---|---|
| Airport | Missoula Montana Airport (KMSO) |
| Time | Latitude | Longitude | Altitude | Speed | Heading |
|---|---|---|---|---|---|
| 2026-05-07 21:51 | 47.49062 | -111.35704 | 3665 ft | 0 kts | 224° |
| 2026-05-07 22:03 | 47.49061 | -111.35704 | 3683 ft | 0 kts | 222° |
| 2026-05-07 22:03 | 47.49057 | -111.35704 | 3665 ft | 1 kts | 192° |
| 2026-05-07 22:03 | 47.49043 | -111.35663 | 3665 ft | 13 kts | 89° |
| 2026-05-07 22:04 | 47.49065 | -111.35545 | 3664 ft | 15 kts | 91° |
| 2026-05-07 22:04 | 47.49048 | -111.35509 | 3664 ft | 4 kts | 140° |
| 2026-05-07 22:04 | 47.49044 | -111.35505 | 3664 ft | 0 kts | 140° |
| 2026-05-07 22:05 | 47.49033 | -111.35491 | 3664 ft | 11 kts | 140° |
| 2026-05-07 22:05 | 47.48962 | -111.35422 | 3663 ft | 12 kts | 177° |
| 2026-05-07 22:05 | 47.48855 | -111.35552 | 3665 ft | 46 kts | 224° |
| 2026-05-07 22:05 | 47.48477 | -111.36108 | 3671 ft | 104 kts | 226° |
| 2026-05-07 22:06 | 47.47937 | -111.36921 | 4096 ft | 115 kts | 230° |
| 2026-05-07 22:06 | 47.47384 | -111.37857 | 4623 ft | 125 kts | 234° |
| 2026-05-07 22:06 | 47.46830 | -111.38858 | 5209 ft | 126 kts | 236° |
| 2026-05-07 22:06 | 47.46418 | -111.39976 | 5799 ft | 121 kts | 256° |
| 2026-05-07 22:07 | 47.46161 | -111.41263 | 5871 ft | 147 kts | 257° |
| 2026-05-07 22:07 | 47.45844 | -111.42857 | 5888 ft | 174 kts | 256° |
| 2026-05-07 22:07 | 47.45475 | -111.44624 | 6187 ft | 183 kts | 255° |
| 2026-05-07 22:07 | 47.45079 | -111.46418 | 6582 ft | 184 kts | 253° |
| 2026-05-07 22:08 | 47.44657 | -111.48209 | 6995 ft | 185 kts | 254° |
| 2026-05-07 22:08 | 47.44230 | -111.50008 | 7425 ft | 186 kts | 253° |
| 2026-05-07 22:08 | 47.43794 | -111.51815 | 7857 ft | 187 kts | 253° |
| 2026-05-07 22:08 | 47.43350 | -111.53631 | 8252 ft | 189 kts | 253° |
| 2026-05-07 22:09 | 47.42899 | -111.55461 | 8645 ft | 190 kts | 253° |
| 2026-05-07 22:09 | 47.42383 | -111.57275 | 9045 ft | 192 kts | 249° |
| 2026-05-07 22:09 | 47.41782 | -111.59047 | 9441 ft | 194 kts | 247° |
| 2026-05-07 22:09 | 47.41174 | -111.60828 | 9836 ft | 195 kts | 247° |
| 2026-05-07 22:10 | 47.40559 | -111.62612 | 10155 ft | 194 kts | 247° |
| 2026-05-07 22:10 | 47.39959 | -111.64401 | 10503 ft | 195 kts | 248° |
| 2026-05-07 22:10 | 47.39366 | -111.66201 | 10867 ft | 195 kts | 248° |
| 2026-05-07 22:10 | 47.38775 | -111.68004 | 11227 ft | 195 kts | 249° |
| 2026-05-07 22:11 | 47.38186 | -111.69820 | 11571 ft | 196 kts | 249° |
| 2026-05-07 22:11 | 47.37593 | -111.71634 | 11913 ft | 197 kts | 249° |
| 2026-05-07 22:11 | 47.37000 | -111.73460 | 12254 ft | 197 kts | 249° |
| 2026-05-07 22:11 | 47.36404 | -111.75286 | 12591 ft | 198 kts | 249° |
| 2026-05-07 22:12 | 47.35805 | -111.77121 | 12933 ft | 199 kts | 249° |
| 2026-05-07 22:12 | 47.35214 | -111.78935 | 13278 ft | 199 kts | 249° |
| 2026-05-07 22:12 | 47.34610 | -111.80779 | 13610 ft | 200 kts | 249° |
| 2026-05-07 22:12 | 47.34006 | -111.82626 | 13903 ft | 200 kts | 250° |
| 2026-05-07 22:13 | 47.33402 | -111.84479 | 14180 ft | 201 kts | 250° |
| 2026-05-07 22:13 | 47.32791 | -111.86339 | 14462 ft | 202 kts | 250° |
| 2026-05-07 22:13 | 47.32181 | -111.88206 | 14730 ft | 203 kts | 250° |
| 2026-05-07 22:13 | 47.31567 | -111.90077 | 15024 ft | 203 kts | 250° |
| 2026-05-07 22:14 | 47.30951 | -111.91956 | 15294 ft | 204 kts | 250° |
| 2026-05-07 22:14 | 47.30332 | -111.93839 | 15568 ft | 204 kts | 250° |
| 2026-05-07 22:14 | 47.29711 | -111.95730 | 15784 ft | 207 kts | 250° |
| 2026-05-07 22:14 | 47.29079 | -111.97677 | 15876 ft | 215 kts | 250° |
| 2026-05-07 22:15 | 47.28430 | -111.99702 | 15919 ft | 222 kts | 250° |
| 2026-05-07 22:15 | 47.27764 | -112.01792 | 15936 ft | 228 kts | 250° |
| 2026-05-07 22:15 | 47.27074 | -112.03932 | 15953 ft | 234 kts | 249° |
| 2026-05-07 22:15 | 47.26369 | -112.06082 | 15962 ft | 239 kts | 249° |
| 2026-05-07 22:16 | 47.25638 | -112.08302 | 15957 ft | 243 kts | 249° |
| 2026-05-07 22:16 | 47.24896 | -112.10554 | 15952 ft | 246 kts | 249° |
| 2026-05-07 22:16 | 47.24146 | -112.12823 | 15951 ft | 247 kts | 249° |
| 2026-05-07 22:16 | 47.23390 | -112.15106 | 15952 ft | 249 kts | 249° |
| 2026-05-07 22:17 | 47.22631 | -112.17405 | 15951 ft | 250 kts | 249° |
| 2026-05-07 22:17 | 47.21866 | -112.19708 | 15951 ft | 251 kts | 249° |
| 2026-05-07 22:17 | 47.21099 | -112.22021 | 15952 ft | 251 kts | 249° |
| 2026-05-07 22:17 | 47.20333 | -112.24331 | 15949 ft | 252 kts | 249° |
| 2026-05-07 22:18 | 47.19564 | -112.26641 | 15952 ft | 252 kts | 249° |
| 2026-05-07 22:18 | 47.18021 | -112.31281 | 15945 ft | 253 kts | 249° |
| 2026-05-07 22:18 | 47.17258 | -112.33567 | 15955 ft | 252 kts | 249° |
| 2026-05-07 22:19 | 47.16486 | -112.35886 | 15954 ft | 253 kts | 249° |
| 2026-05-07 22:19 | 47.15712 | -112.38204 | 15934 ft | 252 kts | 249° |
| 2026-05-07 22:19 | 47.14943 | -112.40506 | 15970 ft | 250 kts | 249° |
| 2026-05-07 22:19 | 47.14177 | -112.42793 | 15984 ft | 249 kts | 249° |
| 2026-05-07 22:20 | 47.13401 | -112.45075 | 16011 ft | 250 kts | 248° |
| 2026-05-07 22:20 | 47.12620 | -112.47364 | 15997 ft | 251 kts | 249° |
| 2026-05-07 22:20 | 47.11843 | -112.49654 | 15995 ft | 250 kts | 249° |
| 2026-05-07 22:20 | 47.11077 | -112.51944 | 15991 ft | 250 kts | 249° |
| 2026-05-07 22:21 | 47.10312 | -112.54232 | 15987 ft | 249 kts | 249° |
| 2026-05-07 22:21 | 47.09545 | -112.56511 | 15987 ft | 248 kts | 249° |
| 2026-05-07 22:21 | 47.08779 | -112.58785 | 15992 ft | 248 kts | 249° |
| 2026-05-07 22:21 | 47.08012 | -112.61066 | 16001 ft | 249 kts | 249° |
| 2026-05-07 22:22 | 47.07245 | -112.63347 | 15996 ft | 250 kts | 249° |
| 2026-05-07 22:22 | 47.06476 | -112.65626 | 15941 ft | 248 kts | 249° |
| 2026-05-07 22:22 | 47.05710 | -112.67887 | 15971 ft | 247 kts | 249° |
| 2026-05-07 22:22 | 47.04950 | -112.70143 | 15998 ft | 247 kts | 249° |
| 2026-05-07 22:23 | 47.04186 | -112.72417 | 16012 ft | 250 kts | 249° |
| 2026-05-07 22:23 | 47.03411 | -112.74700 | 16002 ft | 250 kts | 249° |
| 2026-05-07 22:23 | 47.02639 | -112.76982 | 16006 ft | 250 kts | 249° |
| 2026-05-07 22:23 | 47.01863 | -112.79267 | 16006 ft | 250 kts | 249° |
| 2026-05-07 22:24 | 47.01087 | -112.81550 | 15983 ft | 250 kts | 249° |
| 2026-05-07 22:24 | 47.00322 | -112.83790 | 16021 ft | 249 kts | 249° |
| 2026-05-07 22:24 | 46.99549 | -112.86074 | 16012 ft | 251 kts | 249° |
| 2026-05-07 22:24 | 46.98771 | -112.88372 | 15990 ft | 252 kts | 249° |
| 2026-05-07 22:25 | 46.97989 | -112.90667 | 15992 ft | 252 kts | 249° |
| 2026-05-07 22:25 | 46.97207 | -112.92961 | 15990 ft | 252 kts | 248° |
| 2026-05-07 22:25 | 46.96423 | -112.95249 | 15999 ft | 251 kts | 248° |
| 2026-05-07 22:25 | 46.95641 | -112.97541 | 16000 ft | 252 kts | 248° |
| 2026-05-07 22:26 | 46.94857 | -112.99840 | 15989 ft | 252 kts | 248° |
| 2026-05-07 22:26 | 46.94072 | -113.02138 | 15998 ft | 253 kts | 249° |
| 2026-05-07 22:26 | 46.93283 | -113.04439 | 15989 ft | 253 kts | 248° |
| 2026-05-07 22:26 | 46.92494 | -113.06739 | 15981 ft | 253 kts | 248° |
| 2026-05-07 22:27 | 46.91706 | -113.09036 | 15978 ft | 253 kts | 249° |
| 2026-05-07 22:27 | 46.90917 | -113.11333 | 15994 ft | 253 kts | 248° |
| 2026-05-07 22:27 | 46.90130 | -113.13632 | 15987 ft | 253 kts | 249° |
| 2026-05-07 22:27 | 46.89339 | -113.15933 | 15974 ft | 253 kts | 248° |
| 2026-05-07 22:28 | 46.88546 | -113.18228 | 15967 ft | 252 kts | 248° |
| 2026-05-07 22:28 | 46.87758 | -113.20517 | 15975 ft | 252 kts | 249° |
| 2026-05-07 22:28 | 46.86972 | -113.22796 | 15991 ft | 251 kts | 248° |
| 2026-05-07 22:28 | 46.86185 | -113.25080 | 15982 ft | 251 kts | 248° |
| 2026-05-07 22:29 | 46.85402 | -113.27357 | 15996 ft | 251 kts | 248° |
| 2026-05-07 22:29 | 46.84623 | -113.29609 | 15992 ft | 253 kts | 249° |
| 2026-05-07 22:29 | 46.83828 | -113.31904 | 15977 ft | 253 kts | 248° |
| 2026-05-07 22:29 | 46.83034 | -113.34193 | 15981 ft | 252 kts | 248° |
| 2026-05-07 22:30 | 46.82238 | -113.36490 | 15986 ft | 253 kts | 248° |
| 2026-05-07 22:30 | 46.81443 | -113.38788 | 15985 ft | 253 kts | 248° |
| 2026-05-07 22:30 | 46.80650 | -113.41075 | 15989 ft | 253 kts | 248° |
| 2026-05-07 22:30 | 46.79853 | -113.43365 | 15983 ft | 253 kts | 248° |
| 2026-05-07 22:31 | 46.79057 | -113.45652 | 15992 ft | 253 kts | 248° |
| 2026-05-07 22:31 | 46.78263 | -113.47941 | 15983 ft | 252 kts | 248° |
| 2026-05-07 22:31 | 46.77467 | -113.50219 | 15994 ft | 252 kts | 248° |
| 2026-05-07 22:31 | 46.76671 | -113.52499 | 15999 ft | 253 kts | 248° |
| 2026-05-07 22:32 | 46.75874 | -113.54788 | 16000 ft | 253 kts | 248° |
| 2026-05-07 22:32 | 46.75073 | -113.57081 | 15993 ft | 254 kts | 248° |
| 2026-05-07 22:32 | 46.74272 | -113.59374 | 15962 ft | 253 kts | 248° |
| 2026-05-07 22:32 | 46.73465 | -113.61685 | 15704 ft | 261 kts | 248° |
| 2026-05-07 22:33 | 46.72630 | -113.64093 | 15368 ft | 271 kts | 248° |
| 2026-05-07 22:33 | 46.71774 | -113.66580 | 15045 ft | 278 kts | 248° |
| 2026-05-07 22:33 | 46.70903 | -113.69080 | 14725 ft | 283 kts | 247° |
| 2026-05-07 22:33 | 46.70003 | -113.71646 | 14393 ft | 286 kts | 247° |
| 2026-05-07 22:34 | 46.69083 | -113.74257 | 14095 ft | 284 kts | 247° |
| 2026-05-07 22:34 | 46.68208 | -113.76752 | 13806 ft | 277 kts | 246° |
| 2026-05-07 22:34 | 46.67332 | -113.79225 | 13517 ft | 272 kts | 247° |
| 2026-05-07 22:34 | 46.66468 | -113.81654 | 13202 ft | 268 kts | 247° |
| 2026-05-07 22:35 | 46.65614 | -113.84042 | 12956 ft | 264 kts | 246° |
| 2026-05-07 22:35 | 46.64772 | -113.86406 | 12697 ft | 262 kts | 246° |
| 2026-05-07 22:35 | 46.63938 | -113.88753 | 12460 ft | 260 kts | 246° |
| 2026-05-07 22:35 | 46.63111 | -113.91082 | 12236 ft | 258 kts | 246° |
| 2026-05-07 22:36 | 46.62296 | -113.93383 | 12011 ft | 257 kts | 247° |
| 2026-05-07 22:36 | 46.61479 | -113.95702 | 11749 ft | 255 kts | 247° |
| 2026-05-07 22:36 | 46.61035 | -113.98145 | 11312 ft | 252 kts | 274° |
| 2026-05-07 22:36 | 46.61607 | -114.00519 | 10894 ft | 254 kts | 306° |
| 2026-05-07 22:37 | 46.63022 | -114.02063 | 10485 ft | 262 kts | 336° |
| 2026-05-07 22:37 | 46.64795 | -114.02720 | 10064 ft | 264 kts | 342° |
| 2026-05-07 22:37 | 46.66534 | -114.03601 | 9618 ft | 265 kts | 332° |
| 2026-05-07 22:37 | 46.68106 | -114.04919 | 9172 ft | 263 kts | 323° |
| 2026-05-07 22:38 | 46.69544 | -114.06548 | 8705 ft | 259 kts | 317° |
| 2026-05-07 22:38 | 46.71054 | -114.07876 | 8276 ft | 256 kts | 341° |
| 2026-05-07 22:38 | 46.72823 | -114.08074 | 7848 ft | 250 kts | 358° |
| 2026-05-07 22:38 | 46.74537 | -114.07789 | 7425 ft | 249 kts | 3° |
| 2026-05-07 22:39 | 46.76248 | -114.07385 | 7019 ft | 250 kts | 4° |
| 2026-05-07 22:39 | 46.77951 | -114.06948 | 6590 ft | 243 kts | 7° |
| 2026-05-07 22:39 | 46.79448 | -114.05917 | 6192 ft | 229 kts | 28° |
| 2026-05-07 22:39 | 46.80687 | -114.04629 | 5814 ft | 209 kts | 30° |
| 2026-05-07 22:40 | 46.81793 | -114.03431 | 5662 ft | 198 kts | 32° |
| 2026-05-07 22:40 | 46.82847 | -114.02192 | 5357 ft | 191 kts | 33° |
| 2026-05-07 22:40 | 46.83962 | -114.01253 | 5031 ft | 181 kts | 17° |
| 2026-05-07 22:40 | 46.85125 | -114.00979 | 4756 ft | 159 kts | 359° |
| 2026-05-07 22:41 | 46.86178 | -114.01216 | 4594 ft | 146 kts | 342° |
| 2026-05-07 22:41 | 46.87086 | -114.01787 | 4390 ft | 138 kts | 325° |
| 2026-05-07 22:41 | 46.87786 | -114.02687 | 4188 ft | 131 kts | 313° |
| 2026-05-07 22:41 | 46.88411 | -114.03641 | 4026 ft | 130 kts | 310° |
| 2026-05-07 22:42 | 46.88986 | -114.04659 | 3868 ft | 131 kts | 308° |
| 2026-05-07 22:42 | 46.89559 | -114.05676 | 3686 ft | 126 kts | 309° |
| 2026-05-07 22:42 | 46.90110 | -114.06627 | 3479 ft | 119 kts | 311° |
| 2026-05-07 22:42 | 46.90662 | -114.07567 | 3297 ft | 124 kts | 312° |
| 2026-05-07 22:43 | 46.91205 | -114.08480 | 3207 ft | 107 kts | 313° |
| 2026-05-07 22:43 | 46.91500 | -114.08978 | 3200 ft | 39 kts | 310° |
| 2026-05-07 22:43 | 46.91581 | -114.09100 | 3204 ft | 2 kts | 16° |
| 2026-05-07 22:43 | 46.91605 | -114.09055 | 3206 ft | 11 kts | 74° |
| 2026-05-07 22:44 | 46.91608 | -114.08884 | 3206 ft | 21 kts | 89° |
| 2026-05-07 22:44 | 46.91548 | -114.08681 | 3205 ft | 26 kts | 130° |
| 2026-05-07 22:44 | 46.91432 | -114.08484 | 3201 ft | 25 kts | 130° |
| 2026-05-07 22:44 | 46.91317 | -114.08287 | 3205 ft | 26 kts | 130° |
| 2026-05-07 22:45 | 46.91198 | -114.08082 | 3205 ft | 26 kts | 130° |
| 2026-05-07 22:45 | 46.91076 | -114.07876 | 3203 ft | 27 kts | 130° |
| 2026-05-07 22:45 | 46.91039 | -114.07738 | 3202 ft | 11 kts | 52° |
| 2026-05-07 22:45 | 46.91071 | -114.07729 | 3205 ft | 0 kts | 354° |